Time;durP1;ratioP1;P1;durP2;ratioP2;P2;SDS_P1;SDS_P2;PMS_P1;PMS_P2;Temp;Humidity;BMP_temperature;BMP_pressure;BME280_temperature;BME280_humidity;BME280_pressure;Samples;Min_cycle;Max_cycle;Signal;HPM_P1;HPM_P2
2021/06/21 00:01:54;;;;;;;;;5.00;3.75;;;;;24.96;53.54;100020.00;5078735;27;49049;-56
2021/06/21 00:04:20;;;;;;;;;4.00;4.00;;;;;24.97;53.20;100011.03;5078781;27;46859;-46
2021/06/21 00:06:45;;;;;;;;;4.00;4.00;;;;;24.98;53.19;100010.06;5078880;27;47003;-56
2021/06/21 00:09:10;;;;;;;;;4.00;4.00;;;;;25.00;53.14;100016.09;5078838;27;45752;-57
2021/06/21 00:11:36;;;;;;;;;5.00;4.00;;;;;25.01;53.72;100017.75;5077877;27;57556;-56
2021/06/21 00:14:01;;;;;;;;;2.50;2.50;;;;;25.03;53.20;100014.13;5077774;27;72139;-44
2021/06/21 00:16:27;;;;;;;;;3.00;3.00;;;;;25.03;53.33;100016.78;5078344;27;49662;-52
2021/06/21 00:18:52;;;;;;;;;5.00;5.00;;;;;25.04;53.28;100018.47;5077475;28;45382;-47
2021/06/21 00:21:18;;;;;;;;;5.00;4.75;;;;;25.06;53.34;100021.84;5079171;27;45577;-49
2021/06/21 00:23:43;;;;;;;;;9.00;6.25;;;;;25.05;53.62;100013.03;5078520;27;45377;-59
2021/06/21 00:26:09;;;;;;;;;6.50;5.75;;;;;25.05;53.89;100020.16;5076689;28;63819;-59
2021/06/21 00:28:34;;;;;;;;;7.00;6.50;;;;;25.01;53.36;100014.28;5078675;27;45839;-59
2021/06/21 00:30:59;;;;;;;;;6.25;5.25;;;;;24.99;53.78;100026.81;5078679;27;45592;-57
2021/06/21 00:33:25;;;;;;;;;5.75;5.50;;;;;24.96;53.67;100022.66;5078457;27;45803;-57
2021/06/21 00:35:50;;;;;;;;;7.00;7.00;;;;;24.95;54.04;100034.22;5078066;27;59868;-50
2021/06/21 00:38:16;;;;;;;;;5.50;5.50;;;;;24.93;54.09;100038.81;5077324;27;66370;-58
2021/06/21 00:40:41;;;;;;;;;6.00;5.00;;;;;24.91;53.64;100032.78;5078823;27;45293;-58
2021/06/21 00:43:06;;;;;;;;;6.00;6.00;;;;;24.91;53.67;100031.97;5076984;28;45906;-57
2021/06/21 00:45:32;;;;;;;;;5.50;5.50;;;;;24.91;53.99;100032.78;5077101;28;45273;-55
2021/06/21 00:47:57;;;;;;;;;5.50;5.50;;;;;24.88;53.97;100033.06;5078335;27;45735;-54
2021/06/21 00:50:24;;;;;;;;;7.50;7.50;;;;;24.85;53.67;100036.00;5078171;27;45294;-55
2021/06/21 00:52:52;;;;;;;;;8.25;4.50;;;;;24.80;53.70;100027.59;5078324;27;45437;-51
2021/06/21 00:55:18;;;;;;;;;7.25;7.00;;;;;24.74;54.08;100025.47;5077169;28;45947;-52
2021/06/21 00:57:43;;;;;;;;;5.75;5.00;;;;;24.67;53.88;100023.31;5078081;27;45417;-54
2021/06/21 01:00:13;;;;;;;;;6.00;6.00;;;;;24.65;54.18;100038.50;5078135;27;45601;-59
2021/06/21 01:02:39;;;;;;;;;4.50;4.50;;;;;24.62;54.13;100035.28;5077729;27;48401;-59
2021/06/21 01:05:06;;;;;;;;;5.00;5.00;;;;;24.60;54.49;100035.41;5076645;28;45347;-59
2021/06/21 01:07:31;;;;;;;;;4.50;4.25;;;;;24.54;54.67;100028.81;5078033;27;45370;-58
2021/06/21 01:09:57;;;;;;;;;6.75;6.00;;;;;24.50;54.32;100026.56;5077411;27;56166;-54
2021/06/21 01:12:37;;;;;;;;;5.00;5.00;;;;;24.48;54.81;100023.22;5060189;28;45783;-53
2021/06/21 01:15:07;;;;;;;;;5.50;5.50;;;;;24.44;55.17;100017.34;5076477;28;47223;-57
2021/06/21 01:17:35;;;;;;;;;8.00;6.25;;;;;24.44;54.98;100021.78;5076540;28;45356;-52
2021/06/21 01:20:29;;;;;;;;;7.50;6.00;;;;;24.42;55.01;100015.81;5077893;27;45247;-57
2021/06/21 01:23:28;;;;;;;;;7.00;7.00;;;;;24.41;55.22;100024.72;5075513;28;45242;-57
2021/06/21 01:26:01;;;;;;;;;5.00;5.00;;;;;24.38;55.18;100024.00;5077761;28;45737;-47
2021/06/21 01:28:56;;;;;;;;;10.50;8.00;;;;;24.37;55.11;100021.47;5076522;28;45362;-59
2021/06/21 01:31:21;;;;;;;;;11.00;8.00;;;;;24.43;55.43;100036.84;5078168;27;45437;-58
2021/06/21 01:33:47;;;;;;;;;9.00;9.00;;;;;24.44;55.05;100033.22;5059360;28;46272;-59
2021/06/21 01:36:14;;;;;;;;;7.50;7.50;;;;;24.43;55.37;100034.19;5059108;28;45369;-59
2021/06/21 01:38:41;;;;;;;;;10.00;10.00;;;;;24.43;55.27;100036.84;5059377;27;45959;-58
2021/06/21 01:41:09;;;;;;;;;8.50;8.50;;;;;24.42;55.42;100044.94;5076473;28;45413;-58
2021/06/21 01:43:39;;;;;;;;;11.00;9.50;;;;;24.40;55.68;100047.69;5075835;27;52355;-59
2021/06/21 01:46:05;;;;;;;;;11.00;9.25;;;;;24.37;55.77;100045.28;5076308;28;45974;-58
2021/06/21 01:48:31;;;;;;;;;8.50;7.50;;;;;24.37;55.29;100042.66;5076271;28;45350;-60
2021/06/21 01:50:59;;;;;;;;;9.00;8.50;;;;;24.38;55.33;100039.88;5076329;27;45395;-58
2021/06/21 01:53:24;;;;;;;;;7.75;7.75;;;;;24.38;55.56;100039.03;5077396;27;46130;-59
2021/06/21 01:56:08;;;;;;;;;10.25;9.75;;;;;24.39;55.78;100035.41;5075937;27;45469;-59
2021/06/21 01:58:34;;;;;;;;;10.25;9.50;;;;;24.40;55.22;100042.41;5077229;27;45393;-58
2021/06/21 02:01:00;;;;;;;;;8.25;8.25;;;;;24.44;55.71;100035.88;5076077;27;45464;-59
2021/06/21 02:03:25;;;;;;;;;10.00;9.00;;;;;24.47;55.18;100042.72;5059132;28;46817;-59
2021/06/21 02:05:51;;;;;;;;;9.00;9.00;;;;;24.48;54.65;100047.06;5059168;28;45382;-59
2021/06/21 02:08:17;;;;;;;;;9.25;9.25;;;;;24.48;54.52;100055.81;5075911;28;45282;-59
2021/06/21 02:10:42;;;;;;;;;7.50;6.75;;;;;24.49;54.56;100054.84;5076150;28;45308;-59
2021/06/21 02:13:08;;;;;;;;;7.00;7.00;;;;;24.52;54.53;100056.44;5058631;28;49084;-59
2021/06/21 02:15:33;;;;;;;;;6.50;6.50;;;;;24.52;54.16;100056.44;5075670;28;45416;-60
2021/06/21 02:17:59;;;;;;;;;7.00;7.00;;;;;24.53;54.28;100064.22;5075705;28;45418;-53
2021/06/21 02:20:24;;;;;;;;;7.00;7.00;;;;;24.55;54.08;100061.44;5059258;28;45312;-55
2021/06/21 02:22:50;;;;;;;;;5.00;4.50;;;;;24.55;53.92;100051.69;5076637;27;46175;-58
2021/06/21 02:25:15;;;;;;;;;4.00;4.00;;;;;24.57;53.89;100048.09;5076883;27;45319;-59
2021/06/21 02:27:41;;;;;;;;;4.75;4.75;;;;;24.59;53.32;100057.56;5076992;27;45319;-59
2021/06/21 02:30:10;;;;;;;;;4.75;4.75;;;;;24.59;53.51;100059.38;5077012;27;45727;-55
2021/06/21 02:32:35;;;;;;;;;6.50;5.00;;;;;24.60;53.01;100059.25;5075339;28;46418;-56
2021/06/21 02:35:01;;;;;;;;;4.50;4.50;;;;;24.60;52.96;100053.97;5075302;28;45372;-59
2021/06/21 02:37:26;;;;;;;;;4.75;4.75;;;;;24.60;53.32;100063.69;5076615;27;53003;-59
2021/06/21 02:39:52;;;;;;;;;3.00;3.00;;;;;24.60;53.08;100066.34;5075286;28;45369;-59
2021/06/21 02:42:17;;;;;;;;;4.25;4.00;;;;;24.61;53.31;100060.09;5074442;28;69953;-57
2021/06/21 02:44:42;;;;;;;;;4.00;4.00;;;;;24.61;52.61;100065.38;5075614;27;66606;-57
2021/06/21 02:47:08;;;;;;;;;4.00;4.00;;;;;24.59;52.88;100062.88;5075046;28;49633;-58
2021/06/21 02:49:34;;;;;;;;;5.00;5.00;;;;;24.58;52.40;100058.53;5075495;28;45255;-59
2021/06/21 02:52:10;;;;;;;;;4.00;3.25;;;;;24.58;52.58;100071.78;5075112;28;46025;-55
2021/06/21 02:54:42;;;;;;;;;3.00;3.00;;;;;24.56;52.74;100068.41;5076295;27;45704;-49
2021/06/21 02:57:21;;;;;;;;;2.00;2.00;;;;;24.54;52.42;100059.75;5076694;27;45363;-46
2021/06/21 02:59:46;;;;;;;;;2.00;2.00;;;;;24.49;52.77;100065.44;5075247;27;45287;-50
2021/06/21 03:02:12;;;;;;;;;4.00;4.00;;;;;24.52;52.86;100067.84;5074202;28;67479;-53
2021/06/21 03:04:39;;;;;;;;;3.50;3.50;;;;;24.51;52.32;100075.94;5058338;28;45364;-49
2021/06/21 03:07:04;;;;;;;;;5.00;5.00;;;;;24.50;52.52;100080.38;5058242;28;45290;-51
2021/06/21 03:09:29;;;;;;;;;4.50;3.00;;;;;24.49;52.80;100084.00;5075337;28;45308;-51
2021/06/21 03:11:55;;;;;;;;;4.50;3.25;;;;;24.48;52.24;100086.78;5057960;28;59631;-51
2021/06/21 03:14:22;;;;;;;;;4.00;4.00;;;;;24.45;52.49;100084.38;5074900;28;45533;-43
2021/06/21 03:16:47;;;;;;;;;3.00;3.00;;;;;24.47;52.42;100082.44;5058169;28;45409;-46
2021/06/21 03:19:13;;;;;;;;;3.75;3.75;;;;;24.49;52.53;100075.22;5057372;28;57314;-51
2021/06/21 03:21:42;;;;;;;;;2.75;2.75;;;;;24.46;51.97;100075.47;5074589;28;46944;-44
2021/06/21 03:24:07;;;;;;;;;7.00;4.00;;;;;24.49;52.17;100083.16;5075873;27;45303;-46
2021/06/21 03:26:33;;;;;;;;;3.00;3.00;;;;;24.46;52.20;100072.81;5075946;27;45389;-50
2021/06/21 03:28:58;;;;;;;;;4.00;4.00;;;;;24.47;52.41;100080.66;5075582;27;60678;-51
2021/06/21 03:31:24;;;;;;;;;6.00;6.00;;;;;24.47;52.11;100080.66;5075367;27;59100;-52
2021/06/21 03:33:49;;;;;;;;;7.00;5.25;;;;;24.46;52.32;100078.13;5074763;28;45299;-45
2021/06/21 03:36:14;;;;;;;;;5.00;4.00;;;;;24.46;52.53;100078.13;5076011;27;45364;-49
2021/06/21 03:38:40;;;;;;;;;4.25;4.25;;;;;24.46;52.39;100078.97;5075606;27;45567;-44
2021/06/21 03:41:05;;;;;;;;;4.75;4.50;;;;;24.46;52.43;100072.81;5075705;27;48033;-51
2021/06/21 03:43:32;;;;;;;;;5.50;5.50;;;;;24.46;52.03;100072.81;5075653;27;45495;-42
2021/06/21 03:45:59;;;;;;;;;4.00;4.00;;;;;24.45;51.89;100079.09;5076964;27;45323;-48
2021/06/21 03:48:25;;;;;;;;;4.50;4.50;;;;;24.43;52.08;100081.88;5079523;27;45498;-47
2021/06/21 03:50:50;;;;;;;;;4.00;4.00;;;;;24.44;52.04;100085.34;5079329;27;46150;-53
2021/06/21 03:53:16;;;;;;;;;5.00;5.00;;;;;24.42;52.09;100090.78;5078482;27;63901;-49
2021/06/21 03:55:42;;;;;;;;;4.75;4.75;;;;;24.42;52.06;100095.25;5079339;27;45302;-44
2021/06/21 03:58:07;;;;;;;;;4.00;4.00;;;;;24.41;51.94;100099.69;5079271;27;45290;-53
2021/06/21 04:00:33;;;;;;;;;6.25;6.25;;;;;24.42;52.21;100095.25;5077678;27;46114;-48
2021/06/21 04:02:59;;;;;;;;;6.00;6.00;;;;;24.35;52.59;100093.09;5079989;27;45302;-58
2021/06/21 04:05:24;;;;;;;;;6.25;5.00;;;;;24.41;52.27;100096.22;5077373;28;56306;-53
2021/06/21 04:07:50;;;;;;;;;4.75;4.75;;;;;24.40;52.16;100100.66;5078833;27;45501;-56
2021/06/21 04:10:19;;;;;;;;;8.00;5.50;;;;;24.41;52.37;100101.53;5078911;27;45249;-55
2021/06/21 04:12:47;;;;;;;;;6.00;4.25;;;;;24.41;52.09;100102.34;5078829;27;45833;-55
2021/06/21 04:15:14;;;;;;;;;6.00;5.25;;;;;24.42;52.09;100100.56;5078940;27;45346;-57
2021/06/21 04:17:39;;;;;;;;;4.50;4.50;;;;;24.42;51.88;100108.50;5079136;27;45363;-44
2021/06/21 04:20:06;;;;;;;;;5.75;5.50;;;;;24.42;52.26;100108.50;5078741;27;45755;-63
2021/06/21 04:22:31;;;;;;;;;7.00;5.50;;;;;24.43;51.81;100110.16;5078818;27;45663;-64
2021/06/21 04:24:57;;;;;;;;;3.75;3.75;;;;;24.44;51.86;100115.34;5077024;28;58968;-63
2021/06/21 04:27:22;;;;;;;;;5.75;5.75;;;;;24.44;51.97;100115.34;5078870;27;45560;-63
2021/06/21 04:29:47;;;;;;;;;5.25;5.25;;;;;24.46;51.90;100115.19;5078338;27;45908;-59
2021/06/21 04:32:13;;;;;;;;;5.75;5.75;;;;;24.47;51.57;100114.25;5077639;27;69458;-59
2021/06/21 04:34:38;;;;;;;;;5.25;5.25;;;;;24.43;51.77;100111.00;5077744;27;62131;-61
2021/06/21 04:37:04;;;;;;;;;6.00;6.00;;;;;24.42;51.84;100114.63;5078406;27;51962;-62
2021/06/21 04:39:29;;;;;;;;;7.00;5.00;;;;;24.39;51.69;100104.28;5077259;28;45419;-53
2021/06/21 04:41:55;;;;;;;;;6.00;6.00;;;;;24.43;51.88;100107.50;5077599;27;66042;-56
2021/06/21 04:44:20;;;;;;;;;7.00;4.50;;;;;24.43;51.90;100118.09;5078429;27;45331;-50
2021/06/21 04:46:45;;;;;;;;;7.25;6.25;;;;;24.42;51.77;100125.22;5078166;27;50478;-52
2021/06/21 04:49:13;;;;;;;;;7.00;7.00;;;;;24.43;51.92;100132.19;5076379;28;60335;-47
2021/06/21 04:51:42;;;;;;;;;5.00;5.00;;;;;24.38;51.95;100124.63;5078174;27;45845;-50
2021/06/21 04:54:08;;;;;;;;;6.50;6.25;;;;;24.34;51.88;100122.38;5078210;27;45270;-47
2021/06/21 04:56:35;;;;;;;;;6.00;6.00;;;;;24.23;51.98;100125.91;5077479;28;45764;-49
2021/06/21 04:59:01;;;;;;;;;5.50;5.50;;;;;24.14;52.03;100127.50;5078196;27;47174;-53
2021/06/21 05:01:26;;;;;;;;;6.50;5.50;;;;;24.03;52.25;100128.38;5078005;27;45427;-51
2021/06/21 05:03:51;;;;;;;;;6.75;6.00;;;;;23.90;52.32;100130.31;5077380;27;58638;-57
2021/06/21 05:06:17;;;;;;;;;9.00;7.50;;;;;23.85;52.57;100135.97;5077405;27;58018;-50
2021/06/21 05:08:42;;;;;;;;;5.00;5.00;;;;;23.83;53.03;100137.06;5076474;28;46181;-45
2021/06/21 05:11:08;;;;;;;;;5.75;5.75;;;;;23.80;52.91;100139.94;5076723;28;45344;-60
2021/06/21 05:13:33;;;;;;;;;8.00;7.00;;;;;23.76;52.75;100142.00;5077301;27;66978;-46
2021/06/21 05:15:58;;;;;;;;;7.00;6.00;;;;;23.68;53.25;100142.63;5077341;27;57009;-49
2021/06/21 05:18:24;;;;;;;;;7.25;7.25;;;;;23.57;53.20;100146.13;5077383;27;56289;-55
2021/06/21 05:20:49;;;;;;;;;5.50;5.50;;;;;23.51;53.30;100140.50;5077339;27;52580;-56
2021/06/21 05:23:15;;;;;;;;;6.00;6.00;;;;;23.49;53.65;100159.09;5077732;27;45323;-53
2021/06/21 05:25:40;;;;;;;;;5.00;5.00;;;;;23.49;53.38;100150.34;5077277;27;55487;-47
2021/06/21 05:28:05;;;;;;;;;10.00;7.00;;;;;23.52;53.43;100148.28;5075388;28;72468;-58
2021/06/21 05:30:31;;;;;;;;;8.50;6.00;;;;;23.54;53.49;100140.22;5077309;27;61888;-56
2021/06/21 05:32:56;;;;;;;;;5.50;5.00;;;;;23.54;53.49;100134.94;5077086;27;59238;-60
2021/06/21 05:35:21;;;;;;;;;8.00;7.25;;;;;23.62;53.34;100145.78;5076872;27;62082;-58
2021/06/21 05:37:48;;;;;;;;;7.50;7.50;;;;;23.64;53.27;100146.50;5077162;27;45971;-49
2021/06/21 05:40:14;;;;;;;;;5.75;5.75;;;;;23.65;52.99;100153.44;5077306;27;45181;-48
2021/06/21 05:42:39;;;;;;;;;7.25;7.25;;;;;23.68;53.09;100153.19;5076214;28;45478;-49
2021/06/21 05:45:05;;;;;;;;;5.75;5.75;;;;;23.71;53.26;100160.91;5077233;27;51353;-53
2021/06/21 05:47:31;;;;;;;;;6.25;6.25;;;;;23.70;52.87;100161.03;5077476;27;46366;-50
2021/06/21 05:49:56;;;;;;;;;8.00;8.00;;;;;23.66;53.27;100160.41;5077206;27;45440;-52
2021/06/21 05:52:22;;;;;;;;;6.00;5.75;;;;;23.65;53.21;100163.19;5077384;27;45602;-52
2021/06/21 05:54:47;;;;;;;;;6.00;6.00;;;;;23.64;53.08;100170.31;5076709;27;56432;-48
2021/06/21 05:57:13;;;;;;;;;7.25;7.00;;;;;23.66;53.29;100176.28;5075813;27;45988;-61
2021/06/21 05:59:38;;;;;;;;;7.50;6.75;;;;;23.70;53.18;100171.63;5077036;27;45335;-56
2021/06/21 06:02:03;;;;;;;;;6.00;6.00;;;;;23.73;53.15;100182.78;5075629;27;61765;-61
2021/06/21 06:04:29;;;;;;;;;7.00;7.00;;;;;23.76;52.94;100176.41;5077435;27;45386;-61
2021/06/21 06:06:54;;;;;;;;;5.50;5.50;;;;;23.78;52.97;100191.19;5076424;27;56981;-61
2021/06/21 06:09:20;;;;;;;;;4.75;4.75;;;;;23.80;52.69;100193.72;5076362;27;45305;-62
2021/06/21 06:11:45;;;;;;;;;10.00;7.00;;;;;23.82;52.96;100190.97;5076858;27;45540;-52
2021/06/21 06:14:10;;;;;;;;;7.50;6.50;;;;;23.83;52.70;100192.66;5077184;27;45332;-53
2021/06/21 06:16:36;;;;;;;;;6.00;6.00;;;;;23.85;52.95;100193.38;5077151;27;45326;-62
2021/06/21 06:19:01;;;;;;;;;6.00;6.00;;;;;23.88;52.66;100201.91;5076756;27;45276;-62
2021/06/21 06:21:29;;;;;;;;;6.00;6.00;;;;;23.92;52.46;100213.06;5077090;27;45243;-51
2021/06/21 06:23:56;;;;;;;;;6.25;6.25;;;;;23.89;52.04;100208.88;5077032;27;45378;-59
2021/06/21 06:26:22;;;;;;;;;6.25;5.00;;;;;23.87;52.37;100209.94;5076657;27;45701;-62
2021/06/21 06:28:47;;;;;;;;;5.00;5.00;;;;;23.88;52.24;100208.97;5075417;27;45532;-63
2021/06/21 06:31:13;;;;;;;;;5.50;5.50;;;;;23.89;52.36;100211.53;5076982;27;45517;-62
2021/06/21 06:33:38;;;;;;;;;5.00;4.50;;;;;23.88;52.09;100212.47;5076335;27;64639;-58
2021/06/21 06:36:04;;;;;;;;;5.25;5.25;;;;;23.87;52.00;100205.50;5076614;27;45954;-59
2021/06/21 06:38:30;;;;;;;;;6.75;6.00;;;;;23.86;52.23;100201.16;5076378;27;45556;-58
2021/06/21 06:40:55;;;;;;;;;5.75;5.75;;;;;23.86;51.90;100193.22;5076565;27;45399;-58
2021/06/21 06:43:20;;;;;;;;;6.00;6.00;;;;;23.85;51.91;100190.72;5076816;27;45443;-57
2021/06/21 06:45:46;;;;;;;;;6.00;6.00;;;;;23.85;52.17;100190.72;5076381;27;48632;-59
2021/06/21 06:48:11;;;;;;;;;6.00;5.00;;;;;23.85;51.85;100186.25;5076548;27;45306;-59
2021/06/21 06:50:37;;;;;;;;;5.25;5.25;;;;;23.86;51.79;100184.47;5076988;27;45875;-54
2021/06/21 06:53:03;;;;;;;;;7.25;6.00;;;;;23.88;52.00;100180.72;5076570;27;45299;-59
2021/06/21 06:58:12;;;;;;;;;7.25;5.00;;;;;23.97;51.52;100188.91;5076519;27;45272;-59
2021/06/21 07:00:38;;;;;;;;;6.00;5.25;;;;;24.01;51.64;100190.34;5075754;27;64796;-59
2021/06/21 07:03:05;;;;;;;;;6.00;6.00;;;;;24.04;51.16;100196.25;5076603;27;45560;-59
2021/06/21 07:05:30;;;;;;;;;5.25;5.25;;;;;24.03;51.16;100199.03;5075043;28;46184;-59
2021/06/21 07:07:56;;;;;;;;;6.25;6.25;;;;;24.00;51.36;100192.16;5076203;27;45326;-59
2021/06/21 07:10:22;;;;;;;;;5.75;4.50;;;;;24.01;50.91;100200.94;5076258;27;45278;-57
2021/06/21 07:12:47;;;;;;;;;6.50;5.50;;;;;24.03;51.04;100205.16;5076390;27;45358;-58
2021/06/21 07:15:13;;;;;;;;;7.50;7.00;;;;;24.05;51.22;100203.22;5075699;27;60965;-57
2021/06/21 07:17:39;;;;;;;;;6.75;6.75;;;;;24.07;51.01;100205.75;5076393;27;45319;-59
2021/06/21 07:20:04;;;;;;;;;6.50;5.75;;;;;24.09;50.94;100209.94;5075588;27;53578;-58
2021/06/21 07:22:30;;;;;;;;;8.25;8.00;;;;;24.12;50.99;100208.00;5079341;27;45236;-58
2021/06/21 07:24:55;;;;;;;;;9.00;9.00;;;;;24.14;51.13;100208.72;5079343;27;51912;-58
2021/06/21 07:27:21;;;;;;;;;9.00;8.50;;;;;24.17;50.78;100205.84;5079538;27;45865;-58
2021/06/21 07:29:46;;;;;;;;;9.50;8.25;;;;;24.21;50.75;100216.06;5080115;27;45787;-50
2021/06/21 07:32:12;;;;;;;;;8.75;7.50;;;;;24.26;50.84;100220.97;5079127;27;56073;-51
2021/06/21 07:34:38;;;;;;;;;7.50;7.50;;;;;24.28;50.87;100229.66;5079512;27;46134;-53
2021/06/21 07:37:04;;;;;;;;;8.75;8.00;;;;;24.25;51.09;100224.59;5079481;27;45703;-59
2021/06/21 07:39:29;;;;;;;;;7.75;6.50;;;;;24.33;50.96;100229.28;5079156;27;45360;-56
2021/06/21 07:41:54;;;;;;;;;8.50;7.00;;;;;24.34;50.61;100237.09;5077936;28;45500;-49
2021/06/21 07:44:20;;;;;;;;;7.00;6.00;;;;;24.34;50.10;100233.59;5078974;27;45339;-59
2021/06/21 07:46:46;;;;;;;;;6.25;6.25;;;;;24.33;50.10;100235.41;5078466;27;57294;-56
2021/06/21 07:49:11;;;;;;;;;6.75;6.75;;;;;24.30;50.03;100240.97;5079179;27;45375;-43
2021/06/21 07:51:37;;;;;;;;;6.50;5.00;;;;;24.30;50.42;100243.63;5079677;27;45259;-58
2021/06/21 07:54:02;;;;;;;;;4.00;4.00;;;;;24.32;49.87;100240.81;5078669;27;46257;-56
2021/06/21 07:56:28;;;;;;;;;4.75;4.50;;;;;24.34;50.25;100236.25;5078281;27;45378;-53
2021/06/21 07:58:53;;;;;;;;;7.00;6.00;;;;;24.37;50.19;100243.94;5078910;27;45406;-55
2021/06/21 08:01:19;;;;;;;;;6.00;6.00;;;;;24.39;50.07;100242.00;5078138;27;45619;-45
2021/06/21 08:03:44;;;;;;;;;5.75;5.00;;;;;24.39;49.54;100248.16;5078568;27;55048;-45
2021/06/21 08:06:13;;;;;;;;;3.00;3.00;;;;;24.39;49.69;100248.16;5077362;28;64512;-57
2021/06/21 08:08:42;;;;;;;;;4.50;3.75;;;;;24.41;49.31;100250.66;5078149;27;45363;-49
2021/06/21 08:11:07;;;;;;;;;4.25;4.25;;;;;24.39;48.94;100245.50;5079287;27;45596;-44
2021/06/21 08:13:33;;;;;;;;;5.00;4.00;;;;;24.43;48.56;100250.53;5077410;28;46202;-43
2021/06/21 08:15:58;;;;;;;;;4.00;4.00;;;;;24.44;48.43;100255.72;5077503;28;45692;-44
2021/06/21 08:18:23;;;;;;;;;5.00;4.50;;;;;24.45;48.26;100257.41;5078146;27;60035;-44
2021/06/21 08:20:49;;;;;;;;;4.50;4.00;;;;;24.47;47.21;100260.78;5078995;27;45556;-51
2021/06/21 08:23:15;;;;;;;;;3.25;2.75;;;;;24.47;47.27;100260.78;5078693;27;46131;-49
2021/06/21 08:25:41;;;;;;;;;7.00;4.00;;;;;24.46;46.90;100259.09;5079077;28;45214;-43
2021/06/21 08:28:06;;;;;;;;;2.25;2.25;;;;;24.46;46.75;100261.75;5078942;27;45176;-58
2021/06/21 08:30:32;;;;;;;;;3.75;2.50;;;;;24.45;46.23;100254.75;5078895;27;45192;-50
2021/06/21 08:32:57;;;;;;;;;2.00;2.00;;;;;24.42;46.14;100254.19;5077072;27;75155;-55
2021/06/21 08:35:23;;;;;;;;;6.00;3.00;;;;;24.44;46.09;100260.16;5078500;27;45291;-47
2021/06/21 08:37:48;;;;;;;;;2.00;2.00;;;;;24.43;45.54;100254.03;5077965;27;58569;-59
2021/06/21 08:40:15;;;;;;;;;2.25;2.25;;;;;24.48;45.93;100256.31;5079126;27;45310;-49
2021/06/21 08:42:40;;;;;;;;;2.50;2.00;;;;;24.49;46.04;100253.53;5078614;27;47427;-60
2021/06/21 08:45:06;;;;;;;;;2.00;2.00;;;;;24.51;45.46;100245.47;5078193;27;49808;-59
2021/06/21 08:47:32;;;;;;;;;3.25;3.25;;;;;24.53;45.64;100254.13;5060196;27;45557;-58
2021/06/21 08:49:57;;;;;;;;;2.00;2.00;;;;;24.52;45.11;100250.63;5077652;27;58080;-60
2021/06/21 08:52:25;;;;;;;;;1.25;1.25;;;;;24.57;45.73;100258.19;5078280;27;46303;-59
2021/06/21 08:54:52;;;;;;;;;2.00;2.00;;;;;24.60;45.67;100265.91;5078061;27;45177;-50
2021/06/21 08:57:17;;;;;;;;;1.75;1.75;;;;;24.60;45.01;100257.97;5078374;27;45215;-59
2021/06/21 08:59:43;;;;;;;;;0.75;0.75;;;;;24.62;45.17;100258.69;5077429;28;45506;-60
2021/06/21 09:02:08;;;;;;;;;2.50;2.00;;;;;24.65;45.17;100261.06;5077891;27;45949;-60
2021/06/21 09:04:38;;;;;;;;;2.25;1.50;;;;;24.65;44.50;100262.88;5078038;27;45398;-60
2021/06/21 09:07:20;;;;;;;;;1.00;1.00;;;;;24.66;44.34;100260.09;5078232;27;45318;-59
2021/06/21 09:09:46;;;;;;;;;2.00;1.00;;;;;24.65;43.90;100258.41;5077397;28;45617;-48
2021/06/21 09:12:11;;;;;;;;;1.00;1.00;;;;;24.64;43.37;100262.03;5078109;28;46086;-45
2021/06/21 09:14:37;;;;;;;;;2.00;2.00;;;;;24.66;43.69;100257.44;5076600;27;45480;-43
2021/06/21 09:17:09;;;;;;;;;2.50;1.00;;;;;24.68;43.44;100262.63;5076634;27;45353;-43
2021/06/21 09:19:54;;;;;;;;;3.00;1.00;;;;;24.69;43.63;100267.00;5077819;27;45493;-44
2021/06/21 09:22:33;;;;;;;;;2.00;2.00;;;;;24.70;44.04;100258.91;5077625;27;46597;-43
2021/06/21 09:25:09;;;;;;;;;3.00;1.75;;;;;24.70;43.44;100261.56;5077733;27;45296;-44
2021/06/21 09:27:35;;;;;;;;;1.25;1.00;;;;;24.71;43.56;100267.69;5076308;27;45483;-43
2021/06/21 09:30:05;;;;;;;;;1.50;1.50;;;;;24.73;43.20;100270.25;5078133;27;45288;-44
2021/06/21 09:32:41;;;;;;;;;2.75;2.75;;;;;24.74;43.46;100274.56;5076271;28;45680;-44
2021/06/21 09:35:12;;;;;;;;;2.50;2.25;;;;;24.75;43.22;100276.25;5077609;27;45889;-48
2021/06/21 09:37:47;;;;;;;;;3.00;2.00;;;;;24.76;43.13;100280.56;5077595;27;45416;-44
2021/06/21 09:40:31;;;;;;;;;2.00;2.00;;;;;24.79;43.38;100285.63;5076699;27;45325;-46
2021/06/21 09:42:57;;;;;;;;;1.00;1.00;;;;;24.79;43.31;100283.81;5075866;28;47098;-54
2021/06/21 09:45:22;;;;;;;;;5.00;3.00;;;;;24.81;42.79;100286.34;5076873;27;45485;-52
2021/06/21 09:47:48;;;;;;;;;2.50;2.50;;;;;24.84;43.02;100294.03;5076349;28;45315;-44
2021/06/21 09:50:13;;;;;;;;;3.00;2.50;;;;;24.85;42.69;100298.38;5078019;27;45515;-58
2021/06/21 09:52:42;;;;;;;;;1.00;1.00;;;;;24.87;42.31;100299.06;5077272;27;45282;-60
2021/06/21 09:55:15;;;;;;;;;2.50;2.50;;;;;24.88;42.63;100295.47;5077159;27;45741;-54
2021/06/21 09:57:40;;;;;;;;;0.25;0.25;;;;;24.90;42.66;100305.94;5076158;28;45551;-59
2021/06/21 10:00:10;;;;;;;;;2.00;2.00;;;;;24.89;43.01;100294.50;5077292;27;45572;-50
2021/06/21 10:02:36;;;;;;;;;2.25;2.25;;;;;24.91;42.62;100305.81;5076871;27;45452;-44
2021/06/21 10:05:01;;;;;;;;;2.00;2.00;;;;;24.91;42.00;100305.00;5077123;27;45425;-56
2021/06/21 10:07:33;;;;;;;;;2.00;2.00;;;;;24.92;41.27;100310.16;5077246;28;45355;-52
2021/06/21 10:10:04;;;;;;;;;1.00;1.00;;;;;24.92;41.65;100306.66;5077333;27;45445;-56
2021/06/21 10:12:30;;;;;;;;;1.00;1.00;;;;;24.91;41.72;100311.13;5076988;27;45491;-55
2021/06/21 10:14:56;;;;;;;;;2.75;2.00;;;;;24.92;42.23;100314.59;5077039;27;45305;-51
2021/06/21 10:17:21;;;;;;;;;5.00;2.00;;;;;24.91;41.93;100321.72;5077060;27;45341;-45
2021/06/21 10:19:46;;;;;;;;;4.50;1.50;;;;;24.91;42.06;100321.72;5077516;28;45500;-58
2021/06/21 10:22:12;;;;;;;;;3.00;1.00;;;;;24.91;41.84;100316.41;5074930;28;62503;-59
2021/06/21 10:24:37;;;;;;;;;2.50;2.50;;;;;24.93;42.03;100322.44;5076899;27;45349;-51
2021/06/21 10:27:05;;;;;;;;;2.00;2.00;;;;;24.93;42.28;100319.78;5075264;28;51212;-57
2021/06/21 10:29:31;;;;;;;;;4.50;3.00;;;;;24.94;41.90;100315.31;5077021;27;45440;-60
2021/06/21 10:31:57;;;;;;;;;2.50;2.00;;;;;24.95;41.50;100314.34;5058247;28;46987;-57
2021/06/21 10:34:23;;;;;;;;;1.00;1.00;;;;;24.95;41.04;100306.41;5075402;28;45340;-50
2021/06/21 10:36:51;;;;;;;;;1.50;1.50;;;;;24.95;41.58;100307.25;5058389;28;48450;-46
2021/06/21 10:39:24;;;;;;;;;3.00;1.00;;;;;24.93;41.09;100301.22;5075767;28;45343;-54
2021/06/21 10:42:05;;;;;;;;;0.50;0.50;;;;;24.95;41.41;100304.59;5076642;27;45357;-56
2021/06/21 10:44:58;;;;;;;;;2.00;2.00;;;;;24.95;41.77;100301.94;5076522;27;45553;-52
2021/06/21 10:47:42;;;;;;;;;2.50;2.50;;;;;24.97;41.90;100310.59;5066781;27;45330;-59
2021/06/21 10:50:11;;;;;;;;;4.25;1.00;;;;;24.98;41.64;100309.63;5076632;27;45542;-60
2021/06/21 10:52:59;;;;;;;;;1.50;1.50;;;;;24.99;41.73;100313.97;5092098;27;46980;-54
2021/06/21 10:55:25;;;;;;;;;2.00;2.00;;;;;24.99;41.60;100308.66;5076438;27;45707;-47
2021/06/21 10:57:57;;;;;;;;;1.00;1.00;;;;;25.01;41.87;100309.38;5080471;28;45356;-43
2021/06/21 11:00:29;;;;;;;;;1.00;1.00;;;;;25.04;41.80;100310.09;5080259;27;45420;-52
2021/06/21 11:02:54;;;;;;;;;2.75;1.00;;;;;25.04;42.44;100310.94;5079900;27;45778;-55
2021/06/21 11:05:39;;;;;;;;;1.00;1.00;;;;;25.07;41.86;100305.38;5079042;28;45270;-57
2021/06/21 11:08:26;;;;;;;;;3.00;3.00;;;;;25.09;41.88;100303.44;5080009;27;45327;-59
2021/06/21 11:10:55;;;;;;;;;3.00;3.00;;;;;25.09;41.42;100314.06;5080507;27;45361;-46
2021/06/21 11:13:35;;;;;;;;;2.00;2.00;;;;;25.13;41.67;100315.50;5062044;28;45403;-56
2021/06/21 11:16:12;;;;;;;;;2.00;2.00;;;;;25.15;42.46;100302.09;5079661;27;45381;-59
2021/06/21 11:18:38;;;;;;;;;2.25;1.50;;;;;25.17;41.96;100305.47;5079739;27;45362;-58
2021/06/21 11:21:13;;;;;;;;;2.50;2.50;;;;;25.16;42.07;100295.81;5060639;28;65261;-59
2021/06/21 11:23:46;;;;;;;;;4.75;3.25;;;;;25.21;42.26;100298.09;5079388;27;47235;-59
2021/06/21 11:26:11;;;;;;;;;3.75;3.25;;;;;25.22;42.47;100297.94;5078305;28;45584;-57
2021/06/21 11:28:47;;;;;;;;;6.50;2.25;;;;;25.26;42.05;100303.81;5079640;27;45251;-58